Terminal Aerodrome Forecast
Issued by NWS

Home | Current Version | Previous Version | Text Only | Print | Product List | Glossary On
Versions: 1 2 3 4 5 6 7 8 9 10 11 12 13 14
265
FTUS41 KLWX 262343 RRA
TAFMTN
TAF
KMTN 262343Z 2700/2724 VRB03KT P6SM OVC020
     FM270300 VRB03KT P6SM BKN025
     FM270500 00000KT 3SM BR SCT015
     FM270700 00000KT 2SM BR OVC008
     FM271500 14005KT 4SM BR BKN010
     FM271700 15011G18KT P6SM SCT025
      AMD NOT SKED 2702/2712=

USA.gov is the U.S. government's official web portal to all federal, state and local government web resources and services.